Time;durP1;ratioP1;P1;durP2;ratioP2;P2;SDS_P1;SDS_P2;PMS_P1;PMS_P2;Temp;Humidity;BMP_temperature;BMP_pressure;BME280_temperature;BME280_humidity;BME280_pressure;Samples;Min_cycle;Max_cycle;Signal;HPM_P1;HPM_P2
2022/09/03 00:01:20;;;;;;;8.98;2.40;;;;;;;17.36;44.31;100988.69;4891493;29;20051;-80
2022/09/03 00:03:51;;;;;;;5.72;2.40;;;;;;;17.32;44.44;100982.59;4918379;29;20046;-79
2022/09/03 00:06:25;;;;;;;5.43;2.35;;;;;;;17.28;44.70;100986.34;4918640;29;20510;-79
2022/09/03 00:09:02;;;;;;;9.30;2.70;;;;;;;17.27;44.65;100987.28;4918186;29;20040;-80
2022/09/03 00:11:53;;;;;;;9.43;2.80;;;;;;;17.29;44.18;100987.22;4892230;29;20043;-79
2022/09/03 00:14:23;;;;;;;6.43;2.42;;;;;;;17.24;44.87;100978.56;4887566;29;20477;-80
2022/09/03 00:16:54;;;;;;;12.77;2.80;;;;;;;17.19;45.05;100979.63;4918330;29;20459;-79
2022/09/03 00:19:31;;;;;;;10.45;2.60;;;;;;;17.18;44.89;100985.03;4918344;29;20548;-79
2022/09/03 00:22:01;;;;;;;5.80;2.08;;;;;;;17.13;45.12;100982.56;4907777;29;20045;-80
2022/09/03 00:24:32;;;;;;;6.05;2.55;;;;;;;17.14;45.02;100980.78;4901339;29;20058;-80
2022/09/03 00:27:00;;;;;;;;;;;;;;;17.23;43.85;100992.84;4918537;29;20040;-80
2022/09/03 00:29:40;;;;;;;5.43;2.50;;;;;;;17.13;44.62;100985.25;4910928;29;19923;-80
2022/09/03 00:32:15;;;;;;;8.35;2.30;;;;;;;17.07;44.89;100990.91;4906639;29;20048;-80
2022/09/03 00:34:48;;;;;;;3.85;2.50;;;;;;;17.03;45.71;100981.28;4904695;29;20102;-80
2022/09/03 00:37:13;;;;;;;7.10;2.58;;;;;;;17.01;45.59;100976.94;4917994;29;20525;-80
2022/09/03 00:39:39;;;;;;;6.72;2.53;;;;;;;16.98;45.63;100986.84;4900854;29;20134;-80
2022/09/03 00:42:23;;;;;;;10.98;2.80;;;;;;;16.98;44.91;100989.50;4881931;29;20045;-79
2022/09/03 00:45:07;;;;;;;8.88;2.60;;;;;;;16.96;44.98;100988.75;4912613;29;20044;-80
2022/09/03 00:47:54;;;;;;;6.03;2.58;;;;;;;16.90;45.67;100985.47;4906215;29;20048;-79
2022/09/03 00:50:30;;;;;;;7.65;2.78;;;;;;;16.87;45.78;100982.94;4902692;29;20051;-80
2022/09/03 00:53:31;;;;;;;4.60;2.08;;;;;;;16.87;45.28;100986.47;4916765;29;20044;-80
2022/09/03 00:56:24;;;;;;;3.28;2.33;;;;;;;16.85;45.53;100987.47;4863987;29;20056;-79
2022/09/03 00:59:21;;;;;;;5.80;2.45;;;;;;;16.82;45.08;100984.97;4913914;29;20092;-80
2022/09/03 01:01:50;;;;;;;5.15;2.33;;;;;;;16.80;45.91;100981.47;4895817;29;20047;-80
2022/09/03 01:04:42;;;;;;;8.25;2.67;;;;;;;16.80;45.64;100986.81;4917876;29;20050;-80
2022/09/03 01:07:17;;;;;;;11.40;2.80;;;;;;;16.79;45.57;100977.94;4915520;29;20043;-80
2022/09/03 01:09:55;;;;;;;6.25;2.67;;;;;;;16.79;45.63;100987.75;4900043;29;20043;-79
2022/09/03 01:13:02;;;;;;;7.80;3.17;;;;;;;16.77;45.61;100977.09;4895098;29;20075;-79
2022/09/03 01:16:01;;;;;;;12.88;2.80;;;;;;;16.76;45.55;100981.59;4875848;29;20473;-79
2022/09/03 01:18:33;;;;;;;9.70;3.00;;;;;;;16.71;46.16;100975.56;4917180;29;20032;-79
2022/09/03 01:21:12;;;;;;;7.75;2.85;;;;;;;16.69;45.93;100980.13;4917282;29;20393;-79
2022/09/03 01:24:08;;;;;;;7.43;2.83;;;;;;;16.67;45.91;100983.81;4916628;29;20043;-80
2022/09/03 01:26:53;;;;;;;9.35;2.70;;;;;;;16.65;45.81;100977.66;4897111;29;20473;-79
2022/09/03 01:29:21;;;;;;;10.63;2.88;;;;;;;16.64;46.33;100986.59;4909713;29;20047;-79
2022/09/03 01:32:14;;;;;;;5.28;2.45;;;;;;;16.62;46.38;100978.66;4916916;29;20476;-80
2022/09/03 01:35:02;;;;;;;10.10;2.50;;;;;;;16.63;45.87;100982.19;4917019;29;20044;-79
2022/09/03 01:37:31;;;;;;;6.22;2.80;;;;;;;16.58;46.61;100984.22;4906558;29;20044;-79
2022/09/03 01:40:21;;;;;;;6.13;2.60;;;;;;;16.55;46.18;100988.75;4916514;29;20039;-79
2022/09/03 01:43:13;;;;;;;13.40;2.83;;;;;;;16.54;45.90;100987.03;4917057;29;20040;-79
2022/09/03 01:46:01;;;;;;;6.45;2.20;;;;;;;16.52;46.22;100982.69;4903444;29;20070;-79
2022/09/03 01:48:35;;;;;;;6.13;2.78;;;;;;;16.49;46.85;100977.47;4916490;29;20488;-79
2022/09/03 01:51:19;;;;;;;11.57;2.35;;;;;;;16.46;46.30;100975.78;4915942;29;20446;-79
2022/09/03 01:54:13;;;;;;;5.28;2.75;;;;;;;16.45;46.43;100976.75;4916314;29;20043;-79
2022/09/03 01:56:47;;;;;;;8.68;2.67;;;;;;;16.40;46.75;100975.22;4916639;29;20388;-80
2022/09/03 01:59:28;;;;;;;7.05;2.92;;;;;;;16.36;46.69;100974.47;4899056;29;20047;-79
2022/09/03 02:01:53;;;;;;;6.00;2.83;;;;;;;16.36;46.88;100979.81;4916454;29;20040;-80
2022/09/03 02:04:22;;;;;;;9.77;3.35;;;;;;;16.34;47.18;100984.34;4911322;29;20047;-79
2022/09/03 02:06:50;;;;;;;8.52;2.42;;;;;;;16.30;46.93;100975.59;4908680;29;20035;-79
2022/09/03 02:09:16;;;;;;;6.50;2.63;;;;;;;16.28;47.15;100971.25;4902827;29;20044;-79
2022/09/03 02:11:45;;;;;;;4.80;2.30;;;;;;;16.26;47.34;100979.34;4898472;29;20388;-79
2022/09/03 02:14:12;;;;;;;3.95;2.30;;;;;;;16.24;47.19;100975.84;4911922;29;20499;-79
2022/09/03 02:16:38;;;;;;;6.28;2.42;;;;;;;16.23;47.23;100970.59;4916106;29;20072;-80
2022/09/03 02:19:10;;;;;;;9.00;2.60;;;;;;;16.20;47.49;100968.94;4903147;29;20394;-80
2022/09/03 02:21:39;;;;;;;7.28;2.42;;;;;;;16.17;47.77;100963.72;4903501;29;20499;-80
2022/09/03 02:24:07;;;;;;;5.75;2.53;;;;;;;16.15;47.45;100965.59;4895996;29;20041;-79
2022/09/03 02:26:33;;;;;;;7.00;2.60;;;;;;;16.15;47.62;100967.38;4910436;29;20029;-80
2022/09/03 02:29:01;;;;;;;6.80;2.67;;;;;;;16.11;47.85;100964.84;4907697;29;20052;-79
2022/09/03 02:31:27;;;;;;;7.15;2.58;;;;;;;16.10;47.73;100965.78;4915941;29;20028;-79
2022/09/03 02:33:55;;;;;;;8.35;2.80;;;;;;;16.08;47.74;100969.47;4915799;29;20461;-79
2022/09/03 02:36:27;;;;;;;11.90;2.88;;;;;;;16.05;47.89;100973.13;4902566;29;20064;-79
2022/09/03 02:38:52;;;;;;;4.90;2.55;;;;;;;16.01;48.03;100967.97;4915611;29;20432;-79
2022/09/03 02:41:18;;;;;;;9.98;3.00;;;;;;;16.01;48.14;100970.66;4898700;29;20047;-79
2022/09/03 02:44:08;;;;;;;8.10;3.00;;;;;;;15.97;47.91;100977.03;4899023;29;20480;-79
2022/09/03 02:46:48;;;;;;;6.97;3.10;;;;;;;15.95;47.89;100976.22;4898831;29;20126;-79
2022/09/03 02:49:14;;;;;;;5.30;2.95;;;;;;;15.93;48.46;100972.78;4915687;29;20063;-79
2022/09/03 02:51:42;;;;;;;5.72;2.67;;;;;;;15.89;48.47;100972.88;4914480;29;20062;-79
2022/09/03 02:54:10;;;;;;;9.45;2.63;;;;;;;15.87;48.70;100972.09;4912600;29;20043;-79
2022/09/03 02:56:36;;;;;;;7.22;3.15;;;;;;;15.86;48.34;100970.34;4915370;29;20028;-79
2022/09/03 02:59:06;;;;;;;7.40;3.03;;;;;;;15.83;48.52;100977.63;4887207;29;20040;-79
2022/09/03 03:01:31;;;;;;;10.43;3.10;;;;;;;15.80;48.66;100973.28;4883122;29;20505;-79
2022/09/03 03:03:57;;;;;;;5.95;2.85;;;;;;;15.78;48.97;100967.13;4915232;29;20068;-79
2022/09/03 03:06:23;;;;;;;4.57;2.50;;;;;;;15.75;48.94;100972.63;4914350;29;20040;-79
2022/09/03 03:08:49;;;;;;;7.15;2.83;;;;;;;15.73;49.06;100966.47;4913888;29;20080;-79
2022/09/03 03:11:17;;;;;;;8.38;2.97;;;;;;;15.73;48.98;100966.47;4915523;29;20039;-79
2022/09/03 03:13:44;;;;;;;6.93;2.60;;;;;;;15.69;49.24;100970.16;4913974;29;20048;-79
2022/09/03 03:16:11;;;;;;;6.18;2.47;;;;;;;15.68;48.24;100965.75;4915306;29;20063;-79
2022/09/03 03:18:36;;;;;;;8.00;3.13;;;;;;;15.68;48.79;100971.97;4915247;29;20072;-79
2022/09/03 03:21:10;;;;;;;8.75;2.78;;;;;;;15.65;49.22;100974.75;4882626;29;20160;-79
2022/09/03 03:23:37;;;;;;;5.78;2.55;;;;;;;15.63;49.07;100975.75;4918982;29;20036;-79
2022/09/03 03:26:06;;;;;;;5.85;2.70;;;;;;;15.62;49.50;100969.53;4917865;29;20377;-79
2022/09/03 03:28:32;;;;;;;5.13;2.72;;;;;;;15.62;49.25;100968.66;4902112;29;20045;-79
2022/09/03 03:31:05;;;;;;;7.57;2.50;;;;;;;15.62;49.23;100963.31;4919057;29;20357;-79
2022/09/03 03:33:30;;;;;;;8.77;2.45;;;;;;;15.60;49.21;100960.72;4902214;29;20452;-79
2022/09/03 03:35:55;;;;;;;7.47;2.35;;;;;;;15.60;49.33;100971.41;4886551;29;20159;-79
2022/09/03 03:38:21;;;;;;;5.70;2.67;;;;;;;15.60;48.82;100968.75;4919278;29;20126;-79
2022/09/03 03:40:46;;;;;;;7.78;3.03;;;;;;;15.59;49.59;100984.81;4898786;29;20036;-79
2022/09/03 03:43:12;;;;;;;5.40;2.75;;;;;;;15.57;49.39;100986.66;4914283;29;20047;-79
2022/09/03 03:45:37;;;;;;;7.30;2.67;;;;;;;15.56;49.28;100979.59;4918980;29;20361;-79
2022/09/03 03:48:03;;;;;;;6.15;2.75;;;;;;;15.52;49.69;100981.50;4901488;29;20422;-80
2022/09/03 03:50:28;;;;;;;6.28;2.55;;;;;;;15.49;49.70;100981.63;4912876;29;20351;-79
2022/09/03 03:52:53;;;;;;;7.03;3.17;;;;;;;15.47;49.58;100978.16;4899358;29;20068;-79
2022/09/03 03:55:19;;;;;;;7.35;2.90;;;;;;;15.44;50.04;100968.47;4901806;29;20024;-79
2022/09/03 03:57:44;;;;;;;17.27;3.40;;;;;;;15.42;50.05;100967.66;4910612;29;20044;-79
2022/09/03 04:00:11;;;;;;;6.53;3.00;;;;;;;15.40;50.08;100974.00;4912814;29;20040;-79
2022/09/03 04:02:40;;;;;;;10.07;3.17;;;;;;;15.39;49.99;100964.25;4891720;29;20141;-79
2022/09/03 04:05:06;;;;;;;8.95;2.90;;;;;;;15.40;50.14;100966.84;4893104;29;20052;-79
2022/09/03 04:07:31;;;;;;;7.65;3.08;;;;;;;15.38;50.09;100963.41;4901411;29;20095;-79
2022/09/03 04:09:56;;;;;;;6.78;2.90;;;;;;;15.38;50.13;100962.50;4904936;29;20143;-79
2022/09/03 04:12:22;;;;;;;9.15;3.35;;;;;;;15.36;50.33;100962.59;4870308;29;20075;-79
2022/09/03 04:14:47;;;;;;;9.63;3.00;;;;;;;15.35;50.23;100963.50;4901189;29;20428;-79
2022/09/03 04:17:13;;;;;;;5.40;2.50;;;;;;;15.34;50.42;100971.56;4918143;29;20044;-79
2022/09/03 04:19:39;;;;;;;8.20;2.45;;;;;;;15.34;50.21;100963.56;4885642;29;20100;-79
2022/09/03 04:22:04;;;;;;;8.05;2.72;;;;;;;15.31;49.92;100959.22;4918185;29;20035;-79
2022/09/03 04:24:31;;;;;;;8.38;2.95;;;;;;;15.32;50.24;100960.94;4898741;29;20032;-79
2022/09/03 04:26:56;;;;;;;9.73;2.70;;;;;;;15.31;50.29;100969.03;4907309;29;20032;-79
2022/09/03 04:29:22;;;;;;;8.52;2.40;;;;;;;15.28;50.61;100962.00;4900844;29;20063;-79
2022/09/03 04:34:31;;;;;;;7.80;2.60;;;;;;;15.23;50.63;100958.63;4884963;29;20083;-79
2022/09/03 04:36:57;;;;;;;6.97;2.60;;;;;;;15.19;50.84;100965.91;4901123;29;20059;-79
2022/09/03 04:39:24;;;;;;;7.78;2.90;;;;;;;15.17;50.65;100958.91;4916958;29;20603;-79
2022/09/03 04:41:49;;;;;;;5.63;2.80;;;;;;;15.16;50.93;100958.03;4917846;29;20044;-80
2022/09/03 04:44:15;;;;;;;5.95;2.63;;;;;;;15.12;51.55;100956.41;4918042;29;20111;-79
2022/09/03 04:46:40;;;;;;;9.43;2.70;;;;;;;15.11;50.98;100957.34;4870065;29;20129;-79
2022/09/03 04:49:08;;;;;;;10.90;3.17;;;;;;;15.11;50.96;100961.78;4885344;29;20056;-79
2022/09/03 04:51:33;;;;;;;5.25;2.63;;;;;;;15.09;51.14;100963.66;4916784;29;20044;-79
2022/09/03 04:54:00;;;;;;;6.68;2.90;;;;;;;15.08;51.35;100968.09;4917508;29;20179;-79
2022/09/03 04:56:29;;;;;;;5.00;2.70;;;;;;;15.04;51.56;100964.72;4917801;29;20032;-79
2022/09/03 04:58:57;;;;;;;8.98;2.78;;;;;;;15.02;50.58;100963.88;4905624;29;20044;-79
2022/09/03 05:01:25;;;;;;;6.95;2.90;;;;;;;14.97;51.84;100963.19;4917658;29;20067;-79
2022/09/03 05:03:51;;;;;;;9.95;3.03;;;;;;;14.96;51.68;100969.47;4913377;29;20081;-79
2022/09/03 05:06:17;;;;;;;7.82;2.90;;;;;;;14.98;51.85;100978.25;4881823;29;20049;-79
2022/09/03 05:08:47;;;;;;;13.27;3.15;;;;;;;14.98;52.03;100964.06;4914042;29;20039;-79
2022/09/03 05:11:13;;;;;;;9.50;3.30;;;;;;;14.98;51.63;100970.25;4917471;29;20096;-79
2022/09/03 05:13:39;;;;;;;7.32;2.95;;;;;;;14.98;51.88;100964.06;4917431;29;20056;-79
2022/09/03 05:16:07;;;;;;;7.15;3.08;;;;;;;14.97;51.78;100967.66;4900458;29;20059;-79
2022/09/03 05:18:36;;;;;;;4.60;2.60;;;;;;;14.98;52.17;100966.72;4917398;29;20028;-79
2022/09/03 05:21:04;;;;;;;7.05;3.10;;;;;;;14.96;51.86;100966.81;4917143;29;20071;-79
2022/09/03 05:23:31;;;;;;;9.82;2.75;;;;;;;14.96;51.83;100974.81;4909379;29;20510;-79
2022/09/03 05:25:58;;;;;;;7.18;3.20;;;;;;;14.95;52.43;100969.53;4898753;29;20068;-79
2022/09/03 05:28:26;;;;;;;8.23;2.90;;;;;;;14.93;52.37;100971.38;4916829;29;20059;-79
2022/09/03 05:31:04;;;;;;;7.30;3.53;;;;;;;14.94;53.04;100960.66;4917292;29;20044;-79
2022/09/03 05:33:39;;;;;;;6.68;2.95;;;;;;;14.95;52.09;100961.53;4917114;29;20068;-79
2022/09/03 05:36:07;;;;;;;6.38;3.40;;;;;;;14.97;52.27;100960.53;4900282;29;20404;-79
2022/09/03 05:38:32;;;;;;;10.18;3.10;;;;;;;15.01;52.28;100961.31;4916878;29;20040;-79
2022/09/03 05:41:04;;;;;;;13.32;3.40;;;;;;;15.04;52.27;100956.69;4916858;29;20055;-79
2022/09/03 05:43:31;;;;;;;7.78;3.20;;;;;;;15.05;52.84;100963.75;4896265;29;20032;-79
2022/09/03 05:46:01;;;;;;;12.10;3.50;;;;;;;15.08;52.79;100964.59;4907042;29;20564;-79
2022/09/03 05:48:32;;;;;;;8.32;3.13;;;;;;;15.11;52.41;100967.13;4915399;29;20040;-79
2022/09/03 05:50:59;;;;;;;8.60;2.85;;;;;;;15.12;52.14;100966.22;4908842;29;20040;-79
2022/09/03 05:53:25;;;;;;;8.00;3.22;;;;;;;15.13;52.67;100967.94;4916369;29;20024;-79
2022/09/03 05:55:56;;;;;;;145.30;6.95;;;;;;;15.16;52.36;100968.72;4870497;29;20044;-79
2022/09/03 05:58:21;;;;;;;38.97;3.80;;;;;;;15.21;52.59;100965.88;4909639;29;20357;-79
2022/09/03 06:00:47;;;;;;;12.05;3.35;;;;;;;15.25;52.45;100968.31;4903377;29;20040;-79
2022/09/03 06:03:12;;;;;;;6.65;2.78;;;;;;;15.26;52.42;100970.09;4915288;29;20433;-79
2022/09/03 06:05:37;;;;;;;9.18;3.10;;;;;;;15.30;52.32;100967.28;4899692;29;20068;-79
2022/09/03 06:08:03;;;;;;;9.70;3.17;;;;;;;15.33;52.49;100967.16;4899292;29;20111;-79
2022/09/03 06:10:29;;;;;;;5.57;2.70;;;;;;;15.40;52.16;100974.84;4899450;29;20072;-79
2022/09/03 06:13:02;;;;;;;9.25;3.10;;;;;;;15.46;51.82;100966.63;4916316;29;20428;-79
2022/09/03 06:15:28;;;;;;;9.27;2.85;;;;;;;15.53;52.12;100963.69;4900295;29;20058;-79
2022/09/03 06:17:53;;;;;;;9.20;3.00;;;;;;;15.60;52.02;100968.75;4916366;29;20024;-79
2022/09/03 06:20:19;;;;;;;9.35;2.88;;;;;;;15.72;51.96;100966.50;4874168;29;20076;-79
2022/09/03 06:22:48;;;;;;;7.22;2.72;;;;;;;15.83;51.53;100964.28;4879839;29;20090;-79
2022/09/03 06:25:14;;;;;;;8.88;3.13;;;;;;;15.93;51.63;100981.66;4916062;29;20044;-79
2022/09/03 06:27:39;;;;;;;6.07;3.03;;;;;;;16.01;50.89;100965.31;4915466;29;20399;-79
2022/09/03 06:30:06;;;;;;;12.20;3.00;;;;;;;16.08;51.27;100977.47;4904103;29;20424;-79
2022/09/03 06:32:32;;;;;;;7.38;2.92;;;;;;;16.12;50.95;100974.59;4899249;29;20408;-79
2022/09/03 06:34:57;;;;;;;10.35;2.88;;;;;;;16.17;50.96;100978.84;4902509;29;20035;-79
2022/09/03 06:37:23;;;;;;;8.93;2.90;;;;;;;16.23;50.70;100978.63;4868182;29;20028;-79
2022/09/03 06:39:50;;;;;;;11.23;3.03;;;;;;;16.26;50.69;100976.66;4899116;29;20468;-79
2022/09/03 06:42:15;;;;;;;8.63;2.80;;;;;;;16.33;50.85;100977.28;4898896;29;20377;-79
2022/09/03 06:44:44;;;;;;;7.93;2.75;;;;;;;16.43;50.71;100975.06;4902552;29;20057;-79
2022/09/03 06:47:09;;;;;;;9.13;2.80;;;;;;;16.50;50.04;100976.53;4899258;29;20322;-79
2022/09/03 06:49:35;;;;;;;11.85;2.85;;;;;;;16.57;49.92;100978.00;4886748;29;20047;-79
2022/09/03 06:52:00;;;;;;;12.00;2.72;;;;;;;16.66;50.55;100976.72;4907552;29;20055;-79
2022/09/03 06:54:26;;;;;;;6.72;2.35;;;;;;;16.77;50.16;100979.78;4911231;29;20059;-79
2022/09/03 06:56:51;;;;;;;8.10;2.45;;;;;;;16.87;49.31;100990.97;4913301;29;20079;-79
2022/09/03 06:59:17;;;;;;;7.00;2.83;;;;;;;16.95;49.61;100984.31;4905633;29;20114;-79
2022/09/03 07:01:44;;;;;;;5.72;2.60;;;;;;;17.06;49.71;100967.78;4914282;29;20068;-79
2022/09/03 07:04:10;;;;;;;5.30;2.65;;;;;;;17.19;49.39;100978.75;4898612;29;20040;-79
2022/09/03 07:06:38;;;;;;;10.48;2.70;;;;;;;17.38;49.24;100976.06;4903377;29;20408;-79
2022/09/03 07:09:08;;;;;;;13.40;2.40;;;;;;;17.60;48.96;100978.56;4883927;29;20512;-79
2022/09/03 07:11:35;;;;;;;9.38;2.33;;;;;;;17.87;48.84;100976.38;4898723;29;20040;-79
2022/09/03 07:14:04;;;;;;;6.57;2.40;;;;;;;18.03;47.19;100971.97;4901945;29;20024;-80
2022/09/03 07:16:35;;;;;;;7.82;2.50;;;;;;;18.14;47.01;100975.91;4909590;29;20032;-80
2022/09/03 07:19:02;;;;;;;7.30;2.30;;;;;;;18.20;46.58;100973.81;4909119;29;20028;-80
2022/09/03 07:21:29;;;;;;;8.75;2.17;;;;;;;18.36;46.48;100978.34;4898630;29;20048;-79
2022/09/03 07:23:55;;;;;;;6.65;2.33;;;;;;;18.51;46.38;100971.31;4898331;29;20150;-80
2022/09/03 07:26:27;;;;;;;6.25;2.35;;;;;;;18.66;45.92;100968.69;4902065;29;20097;-79
2022/09/03 07:28:53;;;;;;;4.60;2.50;;;;;;;18.81;45.89;100968.84;4915084;29;20456;-80
2022/09/03 07:31:24;;;;;;;6.40;2.40;;;;;;;18.93;45.65;100970.00;4912868;29;20119;-80
2022/09/03 07:34:05;;;;;;;11.68;2.25;;;;;;;19.07;45.02;100972.78;4905351;29;20040;-80
2022/09/03 07:36:37;;;;;;;17.02;2.55;;;;;;;19.19;44.30;100974.81;4884907;29;20172;-79
2022/09/03 07:39:03;;;;;;;8.63;2.50;;;;;;;19.28;43.94;100968.91;4905539;29;20047;-80
2022/09/03 07:41:31;;;;;;;8.70;2.65;;;;;;;19.34;43.43;100978.44;4909472;29;20624;-80
2022/09/03 07:43:57;;;;;;;7.38;2.10;;;;;;;19.42;43.53;100976.19;4906975;29;20060;-80
2022/09/03 07:46:26;;;;;;;9.32;2.60;;;;;;;19.49;43.23;100979.41;4908913;29;20106;-80
2022/09/03 07:48:53;;;;;;;32.95;3.38;;;;;;;19.56;43.58;100980.78;4908374;29;20056;-80
2022/09/03 07:51:20;;;;;;;5.85;2.53;;;;;;;19.67;43.26;100982.84;4890909;29;20091;-79
2022/09/03 07:53:47;;;;;;;12.73;3.10;;;;;;;19.73;42.92;100978.03;4905689;29;20065;-79
2022/09/03 07:56:16;;;;;;;9.65;2.88;;;;;;;19.83;42.75;100978.34;4898227;29;20052;-79
2022/09/03 07:58:41;;;;;;;7.82;2.50;;;;;;;19.87;42.25;100977.19;4898985;29;20123;-79
2022/09/03 08:01:12;;;;;;;9.43;2.67;;;;;;;19.96;42.53;100982.03;4896281;29;20462;-79
2022/09/03 08:03:41;;;;;;;;;;;;;;;20.05;42.93;100977.06;4912220;29;20369;-79
2022/09/03 08:06:07;;;;;;;14.60;3.00;;;;;;;20.14;42.19;100982.75;4898032;29;19911;-79
2022/09/03 08:08:37;;;;;;;11.82;3.10;;;;;;;20.22;42.04;100984.13;4914260;29;20043;-80
2022/09/03 08:11:10;;;;;;;13.32;3.25;;;;;;;20.32;42.09;100985.31;4918463;29;20092;-79
2022/09/03 08:14:01;;;;;;;12.40;3.30;;;;;;;20.40;42.18;100981.22;4918537;29;20036;-79
2022/09/03 08:16:34;;;;;;;8.20;3.22;;;;;;;20.43;41.59;100984.69;4896824;29;20044;-79
2022/09/03 08:19:00;;;;;;;10.63;3.03;;;;;;;20.39;41.68;100983.97;4918345;29;20108;-79
2022/09/03 08:21:26;;;;;;;9.27;3.35;;;;;;;20.35;41.81;100985.13;4913513;29;20024;-79
2022/09/03 08:23:53;;;;;;;10.52;3.72;;;;;;;20.41;42.08;100987.44;4914600;29;20156;-79
2022/09/03 08:26:20;;;;;;;10.85;3.45;;;;;;;20.60;42.41;100993.47;4905095;29;20039;-79
2022/09/03 08:28:46;;;;;;;16.23;3.80;;;;;;;20.82;41.48;100986.75;4917823;29;20055;-79
2022/09/03 08:31:15;;;;;;;14.23;3.85;;;;;;;21.04;41.04;100991.66;4901023;29;20489;-79
2022/09/03 08:33:43;;;;;;;10.88;3.75;;;;;;;21.19;40.49;101001.47;4918196;29;20254;-79
2022/09/03 08:36:12;;;;;;;11.57;3.50;;;;;;;21.37;41.08;100998.56;4918101;29;20041;-79
2022/09/03 08:38:39;;;;;;;12.63;3.70;;;;;;;21.53;40.83;101009.22;4917987;29;20087;-79
2022/09/03 08:41:18;;;;;;;12.07;3.65;;;;;;;21.72;40.69;101001.66;4918045;29;20499;-79
2022/09/03 08:43:56;;;;;;;17.73;4.28;;;;;;;21.81;39.80;101005.56;4918113;29;20063;-79
2022/09/03 08:46:31;;;;;;;12.00;4.35;;;;;;;21.86;40.18;101001.63;4904530;29;20056;-79
2022/09/03 08:48:58;;;;;;;19.83;4.50;;;;;;;21.91;39.56;100998.63;4917839;29;20028;-79
2022/09/03 08:51:26;;;;;;;17.50;4.03;;;;;;;21.96;39.46;100999.16;4900411;29;20044;-79
2022/09/03 08:53:56;;;;;;;9.50;4.03;;;;;;;22.04;39.13;101004.91;4892642;29;20062;-79
2022/09/03 08:56:27;;;;;;;10.15;3.90;;;;;;;22.09;39.06;101002.75;4888951;29;20044;-79
2022/09/03 08:58:54;;;;;;;16.30;3.67;;;;;;;22.13;39.02;100998.00;4899570;29;20036;-79
2022/09/03 09:01:41;;;;;;;17.88;3.50;;;;;;;22.21;39.32;100998.41;4900687;29;20049;-79
2022/09/03 09:04:22;;;;;;;15.52;3.53;;;;;;;22.38;39.42;101002.66;4904918;29;20515;-79
2022/09/03 09:07:13;;;;;;;13.50;4.55;;;;;;;22.44;39.04;100996.81;4917548;29;20040;-79
2022/09/03 09:10:22;;;;;;;24.42;3.92;;;;;;;22.58;39.13;101001.25;4914580;29;20485;-79
2022/09/03 09:13:16;;;;;;;19.00;3.67;;;;;;;22.75;38.67;100992.00;4906280;29;20051;-79
2022/09/03 09:16:01;;;;;;;13.40;3.67;;;;;;;22.93;38.81;100998.78;4900281;29;20059;-80
2022/09/03 09:18:32;;;;;;;8.63;3.53;;;;;;;23.01;38.22;101003.66;4889734;29;20034;-80
2022/09/03 09:21:14;;;;;;;14.30;3.83;;;;;;;23.14;38.10;100996.38;4911130;29;20040;-80
2022/09/03 09:23:45;;;;;;;17.67;3.72;;;;;;;23.28;37.34;100999.94;4891072;29;20119;-79
2022/09/03 09:26:14;;;;;;;9.50;3.50;;;;;;;23.39;37.25;100998.19;4913622;29;20511;-79
2022/09/03 09:28:42;;;;;;;10.65;2.85;;;;;;;23.51;37.37;100998.25;4900069;29;20410;-80
2022/09/03 09:31:14;;;;;;;14.90;3.30;;;;;;;23.61;37.64;100993.88;4916960;29;20047;-79
2022/09/03 09:33:39;;;;;;;22.20;3.30;;;;;;;23.70;37.49;100997.75;4917041;29;20044;-80
2022/09/03 09:36:14;;;;;;;12.68;3.30;;;;;;;23.78;36.96;100989.94;4884651;29;20351;-80
2022/09/03 09:38:40;;;;;;;13.38;2.88;;;;;;;23.90;36.81;100982.75;4898036;29;20043;-80
2022/09/03 09:41:14;;;;;;;13.40;2.80;;;;;;;23.99;37.05;100985.63;4893617;29;20032;-80
2022/09/03 09:43:40;;;;;;;19.95;3.22;;;;;;;24.15;36.25;100984.47;4903868;29;20039;-80
2022/09/03 09:46:14;;;;;;;11.93;3.10;;;;;;;24.27;36.01;100985.38;4916907;29;20447;-80
2022/09/03 09:48:52;;;;;;;14.32;3.13;;;;;;;24.43;36.53;100988.59;4916580;29;20048;-80
2022/09/03 09:51:25;;;;;;;9.23;2.85;;;;;;;24.52;35.65;100987.06;4915782;29;20104;-80
2022/09/03 09:54:13;;;;;;;10.65;2.90;;;;;;;24.78;36.24;100995.84;4902553;29;20040;-80
2022/09/03 09:56:41;;;;;;;13.40;2.70;;;;;;;24.94;34.75;100993.63;4910092;29;20044;-79
2022/09/03 09:59:10;;;;;;;15.27;2.78;;;;;;;25.05;34.08;100996.34;4872845;29;20026;-80
2022/09/03 10:01:37;;;;;;;7.88;2.80;;;;;;;25.06;33.03;100989.94;4899647;29;20040;-80
2022/09/03 10:04:22;;;;;;;4.28;1.75;;;;;;;25.23;33.50;100995.88;4903492;29;20036;-80
2022/09/03 10:07:01;;;;;;;15.32;2.90;;;;;;;25.33;33.18;100994.13;4885785;29;20123;-80
2022/09/03 10:09:29;;;;;;;11.40;2.33;;;;;;;25.41;32.78;100988.09;4899901;29;20485;-80
2022/09/03 10:12:19;;;;;;;8.38;2.85;;;;;;;25.47;32.53;100992.97;4911356;29;20036;-80
2022/09/03 10:14:54;;;;;;;12.50;2.85;;;;;;;25.65;32.66;100996.91;4916283;29;20488;-80
2022/09/03 10:17:46;;;;;;;12.27;2.80;;;;;;;25.82;32.71;100992.78;4916305;29;20040;-80
2022/09/03 10:20:27;;;;;;;9.70;3.22;;;;;;;25.90;33.02;100990.31;4905055;29;20040;-76
2022/09/03 10:23:15;;;;;;;11.10;3.55;;;;;;;26.04;31.97;100982.84;4913165;29;20044;-76
2022/09/03 10:25:50;;;;;;;9.40;3.45;;;;;;;26.14;30.76;100981.94;4861552;29;20147;-76
2022/09/03 10:28:17;;;;;;;18.60;4.38;;;;;;;26.23;31.62;100980.28;4910141;29;20536;-76
2022/09/03 10:30:58;;;;;;;12.55;3.13;;;;;;;26.29;30.87;100974.34;4892365;29;20051;-76
2022/09/03 10:33:33;;;;;;;10.57;3.95;;;;;;;26.33;31.25;100975.78;4885536;29;20039;-76
2022/09/03 10:36:18;;;;;;;12.80;3.00;;;;;;;26.47;31.83;100971.03;4916007;29;20039;-76
2022/09/03 10:38:51;;;;;;;9.43;2.80;;;;;;;26.49;31.77;100972.63;4904329;29;20051;-76
2022/09/03 10:41:40;;;;;;;14.05;2.90;;;;;;;26.77;32.26;100976.50;4898925;29;20396;-76
2022/09/03 10:44:45;;;;;;;11.98;2.63;;;;;;;27.04;31.35;100975.06;4915812;29;20044;-76
2022/09/03 10:47:38;;;;;;;10.43;2.67;;;;;;;27.11;30.90;100975.38;4895821;29;20392;-76
2022/09/03 10:50:16;;;;;;;9.35;2.40;;;;;;;27.12;31.08;100972.50;4911318;29;20457;-76
2022/09/03 10:53:04;;;;;;;11.15;3.15;;;;;;;27.27;31.86;100967.59;4913093;29;20067;-76
2022/09/03 10:56:11;;;;;;;10.07;2.20;;;;;;;27.50;31.11;100970.06;4915329;29;20076;-76
2022/09/03 10:59:09;;;;;;;7.28;2.22;;;;;;;27.59;31.58;100967.38;4892207;29;20123;-74
2022/09/03 11:01:50;;;;;;;13.40;2.55;;;;;;;27.74;29.86;100975.13;4902686;29;20458;-74
2022/09/03 11:04:18;;;;;;;10.77;2.35;;;;;;;27.81;31.50;100976.28;4904136;29;20028;-74
2022/09/03 11:06:53;;;;;;;9.55;2.17;;;;;;;27.75;29.74;100972.28;4902090;29;20032;-74
2022/09/03 11:09:43;;;;;;;17.25;2.38;;;;;;;27.97;30.38;100975.75;4886645;29;20461;-74
2022/09/03 11:12:21;;;;;;;;;;;;;;;28.16;31.09;100969.44;4898865;29;20190;-74
2022/09/03 11:15:11;;;;;;;7.10;2.28;;;;;;;28.27;29.63;100963.84;4915376;29;20384;-74
2022/09/03 11:17:48;;;;;;;12.70;2.05;;;;;;;28.36;29.15;100960.22;4897198;29;20400;-74
2022/09/03 11:20:23;;;;;;;4.78;2.03;;;;;;;28.53;29.90;100961.38;4898146;29;20127;-74
2022/09/03 11:22:52;;;;;;;4.93;2.00;;;;;;;28.51;29.18;100963.38;4915109;29;20477;-74
2022/09/03 11:25:24;;;;;;;11.10;2.03;;;;;;;28.81;29.68;100958.69;4907001;29;20039;-74
2022/09/03 11:28:23;;;;;;;5.88;2.00;;;;;;;29.07;29.51;100964.38;4911198;29;20127;-74
2022/09/03 11:31:04;;;;;;;9.10;2.10;;;;;;;28.99;28.89;100956.91;4882751;29;20079;-74
2022/09/03 11:33:38;;;;;;;12.77;2.40;;;;;;;29.15;28.24;100959.00;4902442;29;20036;-74
2022/09/03 11:36:05;;;;;;;12.45;2.33;;;;;;;29.31;28.85;100961.09;4915221;29;20392;-74
2022/09/03 11:38:31;;;;;;;7.72;2.20;;;;;;;29.36;27.90;100959.59;4898249;29;20101;-73
2022/09/03 11:41:10;;;;;;;7.70;2.30;;;;;;;29.43;27.39;100959.00;4894851;29;20071;-74
2022/09/03 11:43:36;;;;;;;7.30;2.08;;;;;;;29.69;28.51;100950.94;4911680;29;20060;-74
2022/09/03 11:46:05;;;;;;;9.68;2.17;;;;;;;29.73;27.72;100952.34;4900146;29;20122;-74
2022/09/03 11:48:43;;;;;;;14.75;2.47;;;;;;;30.00;28.72;100946.81;4902362;29;20030;-74
2022/09/03 11:51:17;;;;;;;7.30;2.20;;;;;;;30.24;27.61;100939.81;4900813;29;20131;-74